sensor_id;sensor_type;location;lat;lon;timestamp;P1;durP1;ratioP1;P2;durP2;ratioP2
48951;SDS011;34758;42.148;24.744;2022-10-16T00:00:43;9.90;;;3.45;;
48951;SDS011;34758;42.148;24.744;2022-10-16T00:03:10;6.13;;;3.50;;
48951;SDS011;34758;42.148;24.744;2022-10-16T00:05:38;8.02;;;4.00;;
48951;SDS011;34758;42.148;24.744;2022-10-16T00:08:05;8.80;;;3.80;;
48951;SDS011;34758;42.148;24.744;2022-10-16T00:10:33;5.10;;;3.55;;
48951;SDS011;34758;42.148;24.744;2022-10-16T00:12:59;7.95;;;3.80;;
48951;SDS011;34758;42.148;24.744;2022-10-16T00:15:28;5.88;;;3.63;;
48951;SDS011;34758;42.148;24.744;2022-10-16T00:17:59;8.02;;;3.97;;
48951;SDS011;34758;42.148;24.744;2022-10-16T00:20:27;9.20;;;4.00;;
48951;SDS011;34758;42.148;24.744;2022-10-16T00:22:53;7.60;;;3.80;;
48951;SDS011;34758;42.148;24.744;2022-10-16T00:25:20;8.77;;;3.90;;
48951;SDS011;34758;42.148;24.744;2022-10-16T00:27:47;4.97;;;3.10;;
48951;SDS011;34758;42.148;24.744;2022-10-16T00:30:14;5.60;;;3.47;;
48951;SDS011;34758;42.148;24.744;2022-10-16T00:32:43;7.57;;;4.03;;
48951;SDS011;34758;42.148;24.744;2022-10-16T00:35:11;8.35;;;4.20;;
48951;SDS011;34758;42.148;24.744;2022-10-16T00:37:38;5.35;;;3.70;;
48951;SDS011;34758;42.148;24.744;2022-10-16T00:40:05;6.75;;;4.07;;
48951;SDS011;34758;42.148;24.744;2022-10-16T00:42:33;9.63;;;4.28;;
48951;SDS011;34758;42.148;24.744;2022-10-16T00:45:02;9.35;;;4.13;;
48951;SDS011;34758;42.148;24.744;2022-10-16T00:47:31;6.70;;;4.10;;
48951;SDS011;34758;42.148;24.744;2022-10-16T00:50:04;9.45;;;3.88;;
48951;SDS011;34758;42.148;24.744;2022-10-16T00:52:33;10.98;;;4.88;;
48951;SDS011;34758;42.148;24.744;2022-10-16T00:55:01;10.15;;;4.32;;
48951;SDS011;34758;42.148;24.744;2022-10-16T00:57:29;9.75;;;5.00;;
48951;SDS011;34758;42.148;24.744;2022-10-16T00:59:56;10.18;;;4.93;;
48951;SDS011;34758;42.148;24.744;2022-10-16T01:02:24;9.63;;;5.13;;
48951;SDS011;34758;42.148;24.744;2022-10-16T01:04:51;10.10;;;5.68;;
48951;SDS011;34758;42.148;24.744;2022-10-16T01:07:24;9.45;;;5.05;;
48951;SDS011;34758;42.148;24.744;2022-10-16T01:10:01;8.38;;;5.07;;
48951;SDS011;34758;42.148;24.744;2022-10-16T01:12:36;11.63;;;5.70;;
48951;SDS011;34758;42.148;24.744;2022-10-16T01:15:08;7.60;;;5.07;;
48951;SDS011;34758;42.148;24.744;2022-10-16T01:17:40;8.13;;;4.82;;
48951;SDS011;34758;42.148;24.744;2022-10-16T01:20:10;9.27;;;5.07;;
48951;SDS011;34758;42.148;24.744;2022-10-16T01:22:48;8.45;;;4.57;;
48951;SDS011;34758;42.148;24.744;2022-10-16T01:25:25;8.55;;;4.75;;
48951;SDS011;34758;42.148;24.744;2022-10-16T01:27:58;9.85;;;5.00;;
48951;SDS011;34758;42.148;24.744;2022-10-16T01:30:27;10.07;;;4.85;;
48951;SDS011;34758;42.148;24.744;2022-10-16T01:32:57;7.72;;;5.38;;
48951;SDS011;34758;42.148;24.744;2022-10-16T01:35:28;7.32;;;4.60;;
48951;SDS011;34758;42.148;24.744;2022-10-16T01:37:58;9.02;;;4.80;;
48951;SDS011;34758;42.148;24.744;2022-10-16T01:40:28;7.73;;;4.80;;
48951;SDS011;34758;42.148;24.744;2022-10-16T01:42:57;6.70;;;4.45;;
48951;SDS011;34758;42.148;24.744;2022-10-16T01:45:29;6.63;;;5.05;;
48951;SDS011;34758;42.148;24.744;2022-10-16T01:47:57;7.95;;;4.75;;
48951;SDS011;34758;42.148;24.744;2022-10-16T01:50:25;7.18;;;4.63;;
48951;SDS011;34758;42.148;24.744;2022-10-16T01:52:53;6.85;;;5.03;;
48951;SDS011;34758;42.148;24.744;2022-10-16T01:55:22;13.20;;;5.25;;
48951;SDS011;34758;42.148;24.744;2022-10-16T01:57:51;9.05;;;4.43;;
48951;SDS011;34758;42.148;24.744;2022-10-16T02:00:20;6.25;;;4.30;;
48951;SDS011;34758;42.148;24.744;2022-10-16T02:02:48;7.30;;;4.90;;
48951;SDS011;34758;42.148;24.744;2022-10-16T02:05:18;8.30;;;4.65;;
48951;SDS011;34758;42.148;24.744;2022-10-16T02:07:47;8.85;;;4.93;;
48951;SDS011;34758;42.148;24.744;2022-10-16T02:10:14;7.88;;;4.72;;
48951;SDS011;34758;42.148;24.744;2022-10-16T02:12:42;7.38;;;4.35;;
48951;SDS011;34758;42.148;24.744;2022-10-16T02:15:12;7.40;;;4.45;;
48951;SDS011;34758;42.148;24.744;2022-10-16T02:17:41;5.93;;;4.55;;
48951;SDS011;34758;42.148;24.744;2022-10-16T02:20:08;9.07;;;4.53;;
48951;SDS011;34758;42.148;24.744;2022-10-16T02:22:38;9.38;;;4.10;;
48951;SDS011;34758;42.148;24.744;2022-10-16T02:25:06;9.88;;;5.40;;
48951;SDS011;34758;42.148;24.744;2022-10-16T02:27:36;8.95;;;4.80;;
48951;SDS011;34758;42.148;24.744;2022-10-16T02:30:07;7.27;;;4.80;;
48951;SDS011;34758;42.148;24.744;2022-10-16T02:32:41;8.80;;;5.13;;
48951;SDS011;34758;42.148;24.744;2022-10-16T02:35:09;7.22;;;4.60;;
48951;SDS011;34758;42.148;24.744;2022-10-16T02:37:36;9.68;;;5.07;;
48951;SDS011;34758;42.148;24.744;2022-10-16T02:40:05;6.15;;;5.03;;
48951;SDS011;34758;42.148;24.744;2022-10-16T02:42:34;12.80;;;5.05;;
48951;SDS011;34758;42.148;24.744;2022-10-16T02:45:02;9.27;;;4.70;;
48951;SDS011;34758;42.148;24.744;2022-10-16T02:47:30;6.53;;;4.50;;
48951;SDS011;34758;42.148;24.744;2022-10-16T02:49:59;8.07;;;4.72;;
48951;SDS011;34758;42.148;24.744;2022-10-16T02:52:25;8.27;;;4.93;;
48951;SDS011;34758;42.148;24.744;2022-10-16T02:54:52;9.85;;;5.30;;
48951;SDS011;34758;42.148;24.744;2022-10-16T02:57:19;8.18;;;5.80;;
48951;SDS011;34758;42.148;24.744;2022-10-16T02:59:46;9.25;;;5.65;;
48951;SDS011;34758;42.148;24.744;2022-10-16T03:02:14;13.40;;;6.25;;
48951;SDS011;34758;42.148;24.744;2022-10-16T03:04:41;15.13;;;7.65;;
48951;SDS011;34758;42.148;24.744;2022-10-16T03:07:09;9.88;;;6.97;;
48951;SDS011;34758;42.148;24.744;2022-10-16T03:09:36;10.95;;;7.70;;
48951;SDS011;34758;42.148;24.744;2022-10-16T03:12:04;13.13;;;7.78;;
48951;SDS011;34758;42.148;24.744;2022-10-16T03:14:31;12.13;;;8.02;;
48951;SDS011;34758;42.148;24.744;2022-10-16T03:16:58;13.30;;;7.32;;
48951;SDS011;34758;42.148;24.744;2022-10-16T03:19:25;10.98;;;8.15;;
48951;SDS011;34758;42.148;24.744;2022-10-16T03:21:51;12.38;;;8.85;;
48951;SDS011;34758;42.148;24.744;2022-10-16T03:24:20;11.82;;;8.75;;
48951;SDS011;34758;42.148;24.744;2022-10-16T03:26:47;14.80;;;8.18;;
48951;SDS011;34758;42.148;24.744;2022-10-16T03:29:14;11.75;;;8.30;;
48951;SDS011;34758;42.148;24.744;2022-10-16T03:31:41;12.45;;;7.88;;
48951;SDS011;34758;42.148;24.744;2022-10-16T03:34:08;10.82;;;7.43;;
48951;SDS011;34758;42.148;24.744;2022-10-16T03:36:35;10.07;;;7.68;;
48951;SDS011;34758;42.148;24.744;2022-10-16T03:39:02;9.63;;;7.60;;
48951;SDS011;34758;42.148;24.744;2022-10-16T03:41:31;11.27;;;7.57;;
48951;SDS011;34758;42.148;24.744;2022-10-16T03:43:58;16.65;;;7.65;;
48951;SDS011;34758;42.148;24.744;2022-10-16T03:46:25;9.27;;;6.78;;
48951;SDS011;34758;42.148;24.744;2022-10-16T03:48:52;11.20;;;7.70;;
48951;SDS011;34758;42.148;24.744;2022-10-16T03:51:19;14.43;;;7.68;;
48951;SDS011;34758;42.148;24.744;2022-10-16T03:53:46;13.35;;;8.25;;
48951;SDS011;34758;42.148;24.744;2022-10-16T03:56:13;14.30;;;8.93;;
48951;SDS011;34758;42.148;24.744;2022-10-16T03:58:41;14.93;;;8.73;;
48951;SDS011;34758;42.148;24.744;2022-10-16T04:01:08;14.43;;;9.18;;
48951;SDS011;34758;42.148;24.744;2022-10-16T04:03:35;12.70;;;8.02;;
48951;SDS011;34758;42.148;24.744;2022-10-16T04:06:02;9.63;;;7.05;;
48951;SDS011;34758;42.148;24.744;2022-10-16T04:08:29;9.00;;;6.47;;
48951;SDS011;34758;42.148;24.744;2022-10-16T04:10:59;7.97;;;5.38;;
48951;SDS011;34758;42.148;24.744;2022-10-16T04:13:26;9.40;;;5.45;;
48951;SDS011;34758;42.148;24.744;2022-10-16T04:15:55;9.65;;;6.05;;
48951;SDS011;34758;42.148;24.744;2022-10-16T04:18:22;11.27;;;5.03;;
48951;SDS011;34758;42.148;24.744;2022-10-16T04:20:52;11.25;;;5.82;;
48951;SDS011;34758;42.148;24.744;2022-10-16T04:23:19;8.00;;;5.18;;
48951;SDS011;34758;42.148;24.744;2022-10-16T04:25:46;10.30;;;5.60;;
48951;SDS011;34758;42.148;24.744;2022-10-16T04:28:13;7.63;;;5.25;;
48951;SDS011;34758;42.148;24.744;2022-10-16T04:30:40;9.43;;;5.68;;
48951;SDS011;34758;42.148;24.744;2022-10-16T04:33:09;11.95;;;5.55;;
48951;SDS011;34758;42.148;24.744;2022-10-16T04:35:36;10.90;;;5.63;;
48951;SDS011;34758;42.148;24.744;2022-10-16T04:38:03;9.68;;;5.45;;
48951;SDS011;34758;42.148;24.744;2022-10-16T04:40:30;7.25;;;5.57;;
48951;SDS011;34758;42.148;24.744;2022-10-16T04:43:01;8.20;;;6.22;;
48951;SDS011;34758;42.148;24.744;2022-10-16T04:45:28;8.77;;;6.20;;
48951;SDS011;34758;42.148;24.744;2022-10-16T04:47:57;7.20;;;5.40;;
48951;SDS011;34758;42.148;24.744;2022-10-16T04:50:27;10.77;;;6.13;;
48951;SDS011;34758;42.148;24.744;2022-10-16T04:52:54;10.40;;;6.00;;
48951;SDS011;34758;42.148;24.744;2022-10-16T04:55:21;8.90;;;5.75;;
48951;SDS011;34758;42.148;24.744;2022-10-16T04:57:48;8.13;;;6.18;;
48951;SDS011;34758;42.148;24.744;2022-10-16T05:00:16;10.93;;;6.82;;
48951;SDS011;34758;42.148;24.744;2022-10-16T05:02:43;12.13;;;8.32;;
48951;SDS011;34758;42.148;24.744;2022-10-16T05:05:10;15.23;;;11.73;;
48951;SDS011;34758;42.148;24.744;2022-10-16T05:07:38;17.75;;;11.35;;
48951;SDS011;34758;42.148;24.744;2022-10-16T05:10:05;13.13;;;10.55;;
48951;SDS011;34758;42.148;24.744;2022-10-16T05:12:33;15.70;;;11.65;;
48951;SDS011;34758;42.148;24.744;2022-10-16T05:15:00;18.00;;;12.70;;
48951;SDS011;34758;42.148;24.744;2022-10-16T05:17:27;13.93;;;11.70;;
48951;SDS011;34758;42.148;24.744;2022-10-16T05:19:54;12.60;;;10.13;;
48951;SDS011;34758;42.148;24.744;2022-10-16T05:22:21;13.85;;;11.75;;
48951;SDS011;34758;42.148;24.744;2022-10-16T05:24:49;16.08;;;12.13;;
48951;SDS011;34758;42.148;24.744;2022-10-16T05:27:16;14.50;;;10.63;;
48951;SDS011;34758;42.148;24.744;2022-10-16T05:29:45;12.25;;;10.93;;
48951;SDS011;34758;42.148;24.744;2022-10-16T05:32:12;16.20;;;9.65;;
48951;SDS011;34758;42.148;24.744;2022-10-16T05:34:40;16.40;;;8.70;;
48951;SDS011;34758;42.148;24.744;2022-10-16T05:37:08;10.43;;;7.05;;
48951;SDS011;34758;42.148;24.744;2022-10-16T05:39:36;8.65;;;6.28;;
48951;SDS011;34758;42.148;24.744;2022-10-16T05:42:05;7.68;;;6.05;;
48951;SDS011;34758;42.148;24.744;2022-10-16T05:44:32;9.82;;;5.97;;
48951;SDS011;34758;42.148;24.744;2022-10-16T05:46:59;7.70;;;6.32;;
48951;SDS011;34758;42.148;24.744;2022-10-16T05:49:26;6.95;;;5.88;;
48951;SDS011;34758;42.148;24.744;2022-10-16T05:51:53;9.82;;;6.10;;
48951;SDS011;34758;42.148;24.744;2022-10-16T05:54:20;7.70;;;5.78;;
48951;SDS011;34758;42.148;24.744;2022-10-16T05:56:47;8.63;;;4.65;;
48951;SDS011;34758;42.148;24.744;2022-10-16T05:59:16;8.07;;;4.30;;
48951;SDS011;34758;42.148;24.744;2022-10-16T06:01:43;5.55;;;3.60;;
48951;SDS011;34758;42.148;24.744;2022-10-16T06:04:10;6.65;;;3.65;;
48951;SDS011;34758;42.148;24.744;2022-10-16T06:06:37;8.02;;;3.80;;
48951;SDS011;34758;42.148;24.744;2022-10-16T06:09:05;5.07;;;3.22;;
48951;SDS011;34758;42.148;24.744;2022-10-16T06:11:33;6.97;;;3.70;;
48951;SDS011;34758;42.148;24.744;2022-10-16T06:14:00;7.03;;;3.45;;
48951;SDS011;34758;42.148;24.744;2022-10-16T06:16:33;9.97;;;4.10;;
48951;SDS011;34758;42.148;24.744;2022-10-16T06:19:00;7.88;;;4.28;;
48951;SDS011;34758;42.148;24.744;2022-10-16T06:21:29;7.32;;;3.85;;
48951;SDS011;34758;42.148;24.744;2022-10-16T06:23:56;6.03;;;3.78;;
48951;SDS011;34758;42.148;24.744;2022-10-16T06:26:24;7.60;;;3.40;;
48951;SDS011;34758;42.148;24.744;2022-10-16T06:28:53;6.30;;;3.97;;
48951;SDS011;34758;42.148;24.744;2022-10-16T06:31:22;4.65;;;3.80;;
48951;SDS011;34758;42.148;24.744;2022-10-16T06:33:55;9.20;;;4.53;;
48951;SDS011;34758;42.148;24.744;2022-10-16T06:36:23;5.68;;;3.92;;
48951;SDS011;34758;42.148;24.744;2022-10-16T06:38:50;8.90;;;4.88;;
48951;SDS011;34758;42.148;24.744;2022-10-16T06:41:18;7.28;;;4.03;;
48951;SDS011;34758;42.148;24.744;2022-10-16T06:43:46;7.82;;;5.45;;
48951;SDS011;34758;42.148;24.744;2022-10-16T06:46:16;9.10;;;4.60;;
48951;SDS011;34758;42.148;24.744;2022-10-16T06:48:44;7.47;;;5.35;;
48951;SDS011;34758;42.148;24.744;2022-10-16T06:51:13;7.93;;;4.60;;
48951;SDS011;34758;42.148;24.744;2022-10-16T06:53:42;9.15;;;5.40;;
48951;SDS011;34758;42.148;24.744;2022-10-16T06:56:10;7.72;;;5.40;;
48951;SDS011;34758;42.148;24.744;2022-10-16T06:58:38;7.47;;;5.07;;
48951;SDS011;34758;42.148;24.744;2022-10-16T07:01:05;8.10;;;4.72;;
48951;SDS011;34758;42.148;24.744;2022-10-16T07:03:33;8.10;;;5.25;;
48951;SDS011;34758;42.148;24.744;2022-10-16T07:06:02;5.65;;;4.80;;
48951;SDS011;34758;42.148;24.744;2022-10-16T07:08:32;11.25;;;6.32;;
48951;SDS011;34758;42.148;24.744;2022-10-16T07:11:00;9.18;;;5.40;;
48951;SDS011;34758;42.148;24.744;2022-10-16T07:13:29;6.90;;;5.18;;
48951;SDS011;34758;42.148;24.744;2022-10-16T07:15:56;6.82;;;4.88;;
48951;SDS011;34758;42.148;24.744;2022-10-16T07:18:23;7.00;;;4.28;;
48951;SDS011;34758;42.148;24.744;2022-10-16T07:20:52;6.22;;;4.63;;
48951;SDS011;34758;42.148;24.744;2022-10-16T07:23:19;7.93;;;4.70;;
48951;SDS011;34758;42.148;24.744;2022-10-16T07:25:54;6.07;;;4.40;;
48951;SDS011;34758;42.148;24.744;2022-10-16T07:28:21;6.93;;;5.00;;
48951;SDS011;34758;42.148;24.744;2022-10-16T07:30:48;10.35;;;4.72;;
48951;SDS011;34758;42.148;24.744;2022-10-16T07:33:15;7.00;;;5.03;;
48951;SDS011;34758;42.148;24.744;2022-10-16T07:35:48;8.60;;;4.57;;
48951;SDS011;34758;42.148;24.744;2022-10-16T07:38:15;7.07;;;4.63;;
48951;SDS011;34758;42.148;24.744;2022-10-16T07:40:43;7.60;;;4.28;;
48951;SDS011;34758;42.148;24.744;2022-10-16T07:43:11;7.47;;;5.10;;
48951;SDS011;34758;42.148;24.744;2022-10-16T07:45:46;6.65;;;5.15;;
48951;SDS011;34758;42.148;24.744;2022-10-16T07:48:13;6.00;;;4.70;;
48951;SDS011;34758;42.148;24.744;2022-10-16T07:50:40;7.38;;;4.88;;
48951;SDS011;34758;42.148;24.744;2022-10-16T07:53:09;7.28;;;5.53;;
48951;SDS011;34758;42.148;24.744;2022-10-16T07:55:36;9.25;;;4.97;;
48951;SDS011;34758;42.148;24.744;2022-10-16T07:58:05;10.98;;;5.20;;
48951;SDS011;34758;42.148;24.744;2022-10-16T08:00:33;9.75;;;5.18;;
48951;SDS011;34758;42.148;24.744;2022-10-16T08:03:02;8.98;;;4.65;;
48951;SDS011;34758;42.148;24.744;2022-10-16T08:05:29;7.35;;;4.78;;
48951;SDS011;34758;42.148;24.744;2022-10-16T08:07:57;6.35;;;4.32;;
48951;SDS011;34758;42.148;24.744;2022-10-16T08:10:24;10.50;;;4.22;;
48951;SDS011;34758;42.148;24.744;2022-10-16T08:12:53;5.97;;;4.55;;
48951;SDS011;34758;42.148;24.744;2022-10-16T08:15:20;10.88;;;4.38;;
48951;SDS011;34758;42.148;24.744;2022-10-16T08:17:55;8.13;;;4.32;;
48951;SDS011;34758;42.148;24.744;2022-10-16T08:20:25;9.35;;;5.05;;
48951;SDS011;34758;42.148;24.744;2022-10-16T08:22:53;10.82;;;4.53;;
48951;SDS011;34758;42.148;24.744;2022-10-16T08:25:20;8.02;;;4.35;;
48951;SDS011;34758;42.148;24.744;2022-10-16T08:27:48;8.35;;;4.28;;
48951;SDS011;34758;42.148;24.744;2022-10-16T08:30:15;5.95;;;4.13;;
48951;SDS011;34758;42.148;24.744;2022-10-16T08:32:43;5.03;;;3.65;;
48951;SDS011;34758;42.148;24.744;2022-10-16T08:35:12;6.43;;;4.05;;
48951;SDS011;34758;42.148;24.744;2022-10-16T08:37:41;7.35;;;3.65;;
48951;SDS011;34758;42.148;24.744;2022-10-16T08:40:14;6.57;;;4.78;;
48951;SDS011;34758;42.148;24.744;2022-10-16T08:42:53;6.13;;;3.97;;
48951;SDS011;34758;42.148;24.744;2022-10-16T08:45:34;6.15;;;4.35;;
48951;SDS011;34758;42.148;24.744;2022-10-16T08:48:09;5.32;;;3.50;;
48951;SDS011;34758;42.148;24.744;2022-10-16T08:50:43;6.60;;;3.70;;
48951;SDS011;34758;42.148;24.744;2022-10-16T08:53:13;5.00;;;3.60;;
48951;SDS011;34758;42.148;24.744;2022-10-16T08:55:42;10.80;;;4.32;;
48951;SDS011;34758;42.148;24.744;2022-10-16T08:58:11;6.25;;;3.65;;
48951;SDS011;34758;42.148;24.744;2022-10-16T09:00:39;6.70;;;3.88;;
48951;SDS011;34758;42.148;24.744;2022-10-16T09:03:11;6.72;;;3.95;;
48951;SDS011;34758;42.148;24.744;2022-10-16T09:08:35;9.18;;;3.88;;
48951;SDS011;34758;42.148;24.744;2022-10-16T09:11:09;4.65;;;2.92;;
48951;SDS011;34758;42.148;24.744;2022-10-16T09:13:42;6.18;;;3.63;;
48951;SDS011;34758;42.148;24.744;2022-10-16T09:16:14;5.28;;;3.40;;
48951;SDS011;34758;42.148;24.744;2022-10-16T09:18:48;6.85;;;3.85;;
48951;SDS011;34758;42.148;24.744;2022-10-16T09:21:23;5.38;;;2.50;;
48951;SDS011;34758;42.148;24.744;2022-10-16T09:23:51;8.45;;;3.55;;
48951;SDS011;34758;42.148;24.744;2022-10-16T09:26:18;5.65;;;3.40;;
48951;SDS011;34758;42.148;24.744;2022-10-16T09:28:47;4.32;;;3.40;;
48951;SDS011;34758;42.148;24.744;2022-10-16T09:31:18;4.75;;;2.92;;
48951;SDS011;34758;42.148;24.744;2022-10-16T09:33:48;6.95;;;3.22;;
48951;SDS011;34758;42.148;24.744;2022-10-16T09:36:19;4.78;;;3.20;;
48951;SDS011;34758;42.148;24.744;2022-10-16T09:38:48;6.13;;;2.97;;
48951;SDS011;34758;42.148;24.744;2022-10-16T09:41:17;4.57;;;3.40;;
48951;SDS011;34758;42.148;24.744;2022-10-16T09:43:52;6.20;;;3.20;;
48951;SDS011;34758;42.148;24.744;2022-10-16T09:46:27;6.45;;;2.90;;
48951;SDS011;34758;42.148;24.744;2022-10-16T09:48:56;5.65;;;2.80;;
48951;SDS011;34758;42.148;24.744;2022-10-16T09:51:26;4.32;;;2.78;;
48951;SDS011;34758;42.148;24.744;2022-10-16T09:53:57;4.97;;;3.00;;
48951;SDS011;34758;42.148;24.744;2022-10-16T09:56:27;7.00;;;2.90;;
48951;SDS011;34758;42.148;24.744;2022-10-16T09:58:55;6.90;;;3.65;;
48951;SDS011;34758;42.148;24.744;2022-10-16T10:01:24;3.42;;;2.60;;
48951;SDS011;34758;42.148;24.744;2022-10-16T10:04:04;5.03;;;2.93;;
48951;SDS011;34758;42.148;24.744;2022-10-16T10:06:34;5.22;;;3.38;;
48951;SDS011;34758;42.148;24.744;2022-10-16T10:09:04;4.43;;;3.20;;
48951;SDS011;34758;42.148;24.744;2022-10-16T10:11:43;4.18;;;3.50;;
48951;SDS011;34758;42.148;24.744;2022-10-16T10:14:23;4.03;;;2.70;;
48951;SDS011;34758;42.148;24.744;2022-10-16T10:16:52;5.97;;;2.90;;
48951;SDS011;34758;42.148;24.744;2022-10-16T10:19:29;4.20;;;2.67;;
48951;SDS011;34758;42.148;24.744;2022-10-16T10:21:57;5.28;;;2.80;;
48951;SDS011;34758;42.148;24.744;2022-10-16T10:24:24;6.47;;;2.70;;
48951;SDS011;34758;42.148;24.744;2022-10-16T10:26:53;6.85;;;2.45;;
48951;SDS011;34758;42.148;24.744;2022-10-16T10:29:36;7.43;;;2.78;;
48951;SDS011;34758;42.148;24.744;2022-10-16T10:32:14;3.53;;;2.55;;
48951;SDS011;34758;42.148;24.744;2022-10-16T10:34:50;4.90;;;2.33;;
48951;SDS011;34758;42.148;24.744;2022-10-16T10:37:34;5.50;;;2.70;;
48951;SDS011;34758;42.148;24.744;2022-10-16T10:40:11;3.67;;;2.15;;
48951;SDS011;34758;42.148;24.744;2022-10-16T10:42:46;4.35;;;2.50;;
48951;SDS011;34758;42.148;24.744;2022-10-16T10:45:18;3.53;;;2.35;;
48951;SDS011;34758;42.148;24.744;2022-10-16T10:47:53;5.68;;;2.80;;
48951;SDS011;34758;42.148;24.744;2022-10-16T10:50:33;5.37;;;2.43;;
48951;SDS011;34758;42.148;24.744;2022-10-16T10:53:11;3.92;;;2.58;;
48951;SDS011;34758;42.148;24.744;2022-10-16T10:55:47;5.85;;;2.70;;
48951;SDS011;34758;42.148;24.744;2022-10-16T10:58:24;3.50;;;1.98;;
48951;SDS011;34758;42.148;24.744;2022-10-16T11:01:01;5.28;;;2.28;;
48951;SDS011;34758;42.148;24.744;2022-10-16T11:03:33;5.43;;;2.80;;
48951;SDS011;34758;42.148;24.744;2022-10-16T11:06:08;4.70;;;2.50;;
48951;SDS011;34758;42.148;24.744;2022-10-16T11:08:41;5.67;;;3.40;;
48951;SDS011;34758;42.148;24.744;2022-10-16T11:11:11;7.75;;;3.20;;
48951;SDS011;34758;42.148;24.744;2022-10-16T11:13:43;3.33;;;2.67;;
48951;SDS011;34758;42.148;24.744;2022-10-16T11:16:13;5.00;;;2.65;;
48951;SDS011;34758;42.148;24.744;2022-10-16T11:18:44;4.25;;;2.92;;
48951;SDS011;34758;42.148;24.744;2022-10-16T11:21:15;4.13;;;2.45;;
48951;SDS011;34758;42.148;24.744;2022-10-16T11:23:47;2.95;;;2.20;;
48951;SDS011;34758;42.148;24.744;2022-10-16T11:26:20;4.07;;;2.50;;
48951;SDS011;34758;42.148;24.744;2022-10-16T11:28:50;4.33;;;2.80;;
48951;SDS011;34758;42.148;24.744;2022-10-16T11:31:22;4.90;;;2.58;;
48951;SDS011;34758;42.148;24.744;2022-10-16T11:33:54;3.60;;;2.35;;
48951;SDS011;34758;42.148;24.744;2022-10-16T11:36:27;3.35;;;2.45;;
48951;SDS011;34758;42.148;24.744;2022-10-16T11:39:03;3.72;;;2.65;;
48951;SDS011;34758;42.148;24.744;2022-10-16T11:41:35;3.40;;;2.50;;
48951;SDS011;34758;42.148;24.744;2022-10-16T11:44:12;4.50;;;2.80;;
48951;SDS011;34758;42.148;24.744;2022-10-16T11:46:45;4.75;;;2.63;;
48951;SDS011;34758;42.148;24.744;2022-10-16T11:49:17;3.42;;;2.80;;
48951;SDS011;34758;42.148;24.744;2022-10-16T11:51:48;4.22;;;2.60;;
48951;SDS011;34758;42.148;24.744;2022-10-16T11:54:24;6.00;;;2.53;;
48951;SDS011;34758;42.148;24.744;2022-10-16T11:56:56;4.18;;;3.00;;
48951;SDS011;34758;42.148;24.744;2022-10-16T11:59:27;4.45;;;2.90;;
48951;SDS011;34758;42.148;24.744;2022-10-16T12:01:59;3.90;;;2.30;;
48951;SDS011;34758;42.148;24.744;2022-10-16T12:04:42;4.75;;;2.78;;
48951;SDS011;34758;42.148;24.744;2022-10-16T12:07:13;3.35;;;2.63;;
48951;SDS011;34758;42.148;24.744;2022-10-16T12:09:42;7.38;;;2.58;;
48951;SDS011;34758;42.148;24.744;2022-10-16T12:12:23;6.28;;;2.78;;
48951;SDS011;34758;42.148;24.744;2022-10-16T12:14:59;4.53;;;2.87;;
48951;SDS011;34758;42.148;24.744;2022-10-16T12:17:27;4.75;;;2.90;;
48951;SDS011;34758;42.148;24.744;2022-10-16T12:20:18;5.53;;;2.75;;
48951;SDS011;34758;42.148;24.744;2022-10-16T12:22:52;4.90;;;2.63;;
48951;SDS011;34758;42.148;24.744;2022-10-16T12:25:22;4.03;;;2.33;;
48951;SDS011;34758;42.148;24.744;2022-10-16T12:27:57;5.32;;;2.70;;
48951;SDS011;34758;42.148;24.744;2022-10-16T12:30:26;4.45;;;2.63;;
48951;SDS011;34758;42.148;24.744;2022-10-16T12:32:55;4.70;;;2.47;;
48951;SDS011;34758;42.148;24.744;2022-10-16T12:35:24;5.60;;;3.00;;
48951;SDS011;34758;42.148;24.744;2022-10-16T12:37:52;6.35;;;3.60;;
48951;SDS011;34758;42.148;24.744;2022-10-16T12:40:26;7.85;;;3.20;;
48951;SDS011;34758;42.148;24.744;2022-10-16T12:42:54;5.47;;;3.15;;
48951;SDS011;34758;42.148;24.744;2022-10-16T12:45:26;4.95;;;3.38;;
48951;SDS011;34758;42.148;24.744;2022-10-16T12:47:57;5.68;;;3.72;;
48951;SDS011;34758;42.148;24.744;2022-10-16T12:50:25;8.60;;;3.25;;
48951;SDS011;34758;42.148;24.744;2022-10-16T12:52:57;6.55;;;3.55;;
48951;SDS011;34758;42.148;24.744;2022-10-16T12:55:26;6.38;;;3.65;;
48951;SDS011;34758;42.148;24.744;2022-10-16T12:58:00;5.75;;;3.67;;
48951;SDS011;34758;42.148;24.744;2022-10-16T13:00:32;4.25;;;3.58;;
48951;SDS011;34758;42.148;24.744;2022-10-16T13:03:20;5.05;;;4.07;;
48951;SDS011;34758;42.148;24.744;2022-10-16T13:06:00;5.68;;;3.10;;
48951;SDS011;34758;42.148;24.744;2022-10-16T13:08:38;4.80;;;3.47;;
48951;SDS011;34758;42.148;24.744;2022-10-16T13:11:17;6.40;;;3.70;;
48951;SDS011;34758;42.148;24.744;2022-10-16T13:13:55;6.05;;;4.20;;
48951;SDS011;34758;42.148;24.744;2022-10-16T13:16:32;7.10;;;3.65;;
48951;SDS011;34758;42.148;24.744;2022-10-16T13:19:08;6.15;;;3.97;;
48951;SDS011;34758;42.148;24.744;2022-10-16T13:21:42;7.03;;;3.30;;
48951;SDS011;34758;42.148;24.744;2022-10-16T13:24:18;6.57;;;3.25;;
48951;SDS011;34758;42.148;24.744;2022-10-16T13:26:54;4.05;;;3.30;;
48951;SDS011;34758;42.148;24.744;2022-10-16T13:29:28;4.68;;;2.88;;
48951;SDS011;34758;42.148;24.744;2022-10-16T13:34:22;6.07;;;3.22;;
48951;SDS011;34758;42.148;24.744;2022-10-16T13:36:50;5.10;;;3.03;;
48951;SDS011;34758;42.148;24.744;2022-10-16T13:39:20;7.75;;;5.57;;
48951;SDS011;34758;42.148;24.744;2022-10-16T13:42:02;5.47;;;3.80;;
48951;SDS011;34758;42.148;24.744;2022-10-16T13:44:31;6.30;;;4.60;;
48951;SDS011;34758;42.148;24.744;2022-10-16T13:49:29;9.95;;;6.00;;
48951;SDS011;34758;42.148;24.744;2022-10-16T13:51:56;11.07;;;5.90;;
48951;SDS011;34758;42.148;24.744;2022-10-16T13:54:25;8.45;;;4.45;;
48951;SDS011;34758;42.148;24.744;2022-10-16T13:56:54;7.22;;;3.80;;
48951;SDS011;34758;42.148;24.744;2022-10-16T13:59:26;3.88;;;2.70;;
48951;SDS011;34758;42.148;24.744;2022-10-16T14:01:59;5.00;;;3.47;;
48951;SDS011;34758;42.148;24.744;2022-10-16T14:04:27;10.85;;;6.38;;
48951;SDS011;34758;42.148;24.744;2022-10-16T14:06:57;5.70;;;4.07;;
48951;SDS011;34758;42.148;24.744;2022-10-16T14:09:24;7.75;;;5.35;;
48951;SDS011;34758;42.148;24.744;2022-10-16T14:11:53;7.28;;;3.58;;
48951;SDS011;34758;42.148;24.744;2022-10-16T14:17:00;5.60;;;3.00;;
48951;SDS011;34758;42.148;24.744;2022-10-16T14:19:29;8.80;;;3.65;;
48951;SDS011;34758;42.148;24.744;2022-10-16T14:21:56;20.90;;;4.80;;
48951;SDS011;34758;42.148;24.744;2022-10-16T14:24:26;6.80;;;3.08;;
48951;SDS011;34758;42.148;24.744;2022-10-16T14:26:54;8.02;;;4.20;;
48951;SDS011;34758;42.148;24.744;2022-10-16T14:29:22;6.22;;;3.13;;
48951;SDS011;34758;42.148;24.744;2022-10-16T14:32:05;10.18;;;3.92;;
48951;SDS011;34758;42.148;24.744;2022-10-16T14:34:35;6.50;;;3.17;;
48951;SDS011;34758;42.148;24.744;2022-10-16T14:37:06;8.98;;;3.83;;
48951;SDS011;34758;42.148;24.744;2022-10-16T14:39:35;7.85;;;2.88;;
48951;SDS011;34758;42.148;24.744;2022-10-16T14:42:02;4.10;;;3.28;;
48951;SDS011;34758;42.148;24.744;2022-10-16T14:44:30;6.78;;;3.67;;
48951;SDS011;34758;42.148;24.744;2022-10-16T14:47:08;7.03;;;3.50;;
48951;SDS011;34758;42.148;24.744;2022-10-16T14:49:36;5.57;;;3.13;;
48951;SDS011;34758;42.148;24.744;2022-10-16T14:52:04;7.68;;;3.50;;
48951;SDS011;34758;42.148;24.744;2022-10-16T14:54:35;6.32;;;3.60;;
48951;SDS011;34758;42.148;24.744;2022-10-16T14:57:02;5.55;;;3.28;;